Terminal Aerodrome Forecast
Issued by NWS Binghamton, NY

Home | Current Version | Previous Version | Text Only | Print | Product List | Glossary On
Versions: 1 2 3 4 5 6 7 8 9 10 11 12 13 14 15 16 17 18 19 20
000
FTUS41 KBGM 202300
TAFBGM
TAF
KBGM 202331Z 2100/2124 26012KT P6SM -SHSN OVC060
     FM210900 27011KT P6SM -SHSN SCT025 BKN035
     FM211500 30011KT P6SM BKN035=

USA.gov is the U.S. government's official web portal to all federal, state and local government web resources and services.